Latest Coastal Weather Observations for Gold Coast Seaway

IDQ60701

Issued at 1:22 pm EST Monday 1 March 2021 (issued every 10 minutes, with the page automatically refreshed every 10 minutes)

About coastal observations | Map of coastal stations | Coastal observations for QLD | Marine services | Other Formats
Station Details ID: 040764 Name: GOLD COAST SEAWAY Lat: -27.94 Lon: 153.43 Height: 2.98 m
Data from the previous 72 hours. | See also: Recent months at Gold Coast Seaway
Date/Time
EST
Wind Sea
Height
m
Swell Vis
km
Cloud Weather Temp
°C
Press
MSL
hPa
Rain since
9am
mm
Dir  Spd
kts
Gust
kts
Height
m
Period
s
Dir
01/01:00pm NNE 5 6 - - - - - - - 27.0 1010.0 0.0
01/12:30pm NNE 5 7 - - - - - - - 27.4 1010.3 0.0
01/12:00pm NNE 5 7 - - - - - - - 27.4 1010.4 0.0
01/11:30am NE 6 7 - - - - - - - 27.5 1010.4 0.0
01/11:00am NE 6 7 - - - - - - - 27.6 1010.6 0.0
01/10:30am NNE 4 7 - - - - - - - 27.8 1010.8 0.0
01/10:00am N 1 4 - - - - - - - 27.1 1010.7 0.0
01/09:30am NW 3 5 - - - - - - - 26.9 1011.0 0.0
01/09:00am N 1 4 - - - - - - - 26.9 1010.7 0.2
01/08:30am CALM 0 0 - - - - - - - 26.0 1010.7 0.2
01/08:00am CALM 0 0 - - - - - - - 25.7 1010.3 0.2
01/07:30am WSW 1 3 - - - - - - - 25.4 1010.1 0.2
01/07:00am NW 1 4 - - - - - - - 24.9 1009.7 0.2
01/06:30am NW 3 4 - - - - - - - 24.6 1009.3 0.2
01/06:00am W 4 7 - - - - - - - 24.4 1009.2 0.2
01/05:30am WSW 1 5 - - - - - - - 24.2 1008.9 0.2
01/05:00am CALM 0 4 - - - - - - - 24.2 1008.6 0.2
01/04:30am CALM 0 0 - - - - - - - 24.4 1008.7 0.2
01/04:00am WSW 3 5 - - - - - - - 24.4 1009.3 0.2
01/03:30am W 3 5 - - - - - - - 24.7 1009.1 0.2
01/03:00am WSW 4 5 - - - - - - - 24.7 1009.0 0.2
01/02:30am WNW 3 5 - - - - - - - 25.0 1008.9 0.2
01/02:00am NW 4 6 - - - - - - - 25.2 1009.6 0.2
01/01:30am W 2 4 - - - - - - - 25.2 1009.6 0.2
01/01:00am WNW 3 6 - - - - - - - 25.4 1010.2 0.2
01/12:30am NNW 5 7 - - - - - - - 25.3 1010.5 0.2
01/12:00am NW 3 4 - - - - - - - 25.4 1010.8 0.2
 
Date/Time
EST
Wind Sea
Height
m
Swell Vis
km
Cloud Weather Temp
°C
Press
MSL
hPa
Rain since
9am
mm
Dir  Spd
kts
Gust
kts
Height
m
Period
s
Dir
28/11:30pm WNW 4 5 - - - - - - - 25.6 1011.2 0.2
28/11:00pm NW 4 5 - - - - - - - 25.5 1011.2 0.2
28/10:30pm CALM 0 0 - - - - - - - 25.5 1011.3 0.2
28/10:00pm NNW 4 7 - - - - - - - 25.6 1011.1 0.2
28/09:30pm NNW 4 7 - - - - - - - 25.8 1011.4 0.2
28/09:00pm N 4 6 - - - - - - - 25.9 1011.1 0.2
28/08:30pm N 5 8 - - - - - - - 26.1 1010.9 0.2
28/08:00pm NNE 7 10 - - - - - - - 26.2 1010.6 0.2
28/07:30pm NNE 7 10 - - - - - - - 26.2 1010.0 0.2
28/07:00pm NNE 7 9 - - - - - - - 26.2 1010.1 0.2
28/06:30pm NNE 7 11 - - - - - - - 26.3 1009.7 0.2
28/06:00pm NNE 9 12 - - - - - - - 26.6 1009.5 0.2
28/05:30pm NE 9 11 - - - - - - - 27.0 1009.3 0.2
28/05:00pm NE 11 13 - - - - - - - 27.5 1009.3 0.2
28/04:30pm NNE 10 13 - - - - - - - 28.0 1009.3 0.2
28/04:00pm NE 11 13 - - - - - - - 28.7 1009.2 0.2
28/03:30pm NNE 10 13 - - - - - - - 28.3 1009.5 0.2
28/03:00pm NE 11 13 - - - - - - - 28.9 1009.8 0.2
28/02:30pm NE 11 13 - - - - - - - 29.2 1009.9 0.2
28/02:00pm NE 10 12 - - - - - - - 28.9 1010.3 0.2
28/01:30pm NE 10 13 - - - - - - - 28.3 1010.7 0.2
28/01:00pm NE 11 13 - - - - - - - 29.3 1010.9 0.2
28/12:30pm NE 10 12 - - - - - - - 28.5 1011.1 0.2
28/12:00pm ENE 9 11 - - - - - - - 28.5 1011.5 0.2
28/11:30am NE 9 11 - - - - - - - 28.5 1011.8 0.2
28/11:00am ENE 7 8 - - - - - - - 28.9 1012.0 0.2
28/10:30am ENE 7 9 - - - - - - - 28.6 1012.1 0.2
28/10:00am ENE 5 7 - - - - - - - 28.4 1012.2 0.2
28/09:30am E 5 7 - - - - - - - 27.8 1012.3 0.2
28/09:00am ESE 5 6 - - - - - - - 27.6 1012.3 0.6
28/08:30am SE 4 4 - - - - - - - 26.7 1012.1 0.6
28/08:00am SE 1 3 - - - - - - - 25.8 1012.1 0.6
28/07:30am SSE 2 5 - - - - - - - 25.5 1011.8 0.6
28/07:00am SSW 3 4 - - - - - - - 25.0 1011.6 0.6
28/06:30am SW 4 5 - - - - - - - 24.7 1011.5 0.6
28/06:00am SW 3 5 - - - - - - - 24.4 1011.1 0.6
28/05:30am SW 4 5 - - - - - - - 24.4 1010.8 0.6
28/05:00am SW 3 4 - - - - - - - 24.4 1010.6 0.6
28/04:30am WSW 3 4 - - - - - - - 24.5 1010.4 0.6
28/04:00am CALM 0 0 - - - - - - - 24.6 1010.3 0.6
28/03:30am W 2 5 - - - - - - - 24.6 1010.3 0.6
28/03:00am W 3 5 - - - - - - Rain 24.7 1010.6 0.6
28/02:30am NW 6 8 - - - - - - - 24.9 1010.7 0.2
28/02:00am CALM 0 3 - - - - - - - 25.4 1011.0 0.2
28/01:30am NNE 8 10 - - - - - - - 25.7 1011.1 0.2
28/01:00am NNE 9 12 - - - - - - - 25.6 1011.3 0.2
28/12:30am NNE 11 13 - - - - - - - 25.6 1011.5 0.2
28/12:00am NE 8 10 - - - - - - - 26.1 1011.5 0.2
 
Date/Time
EST
Wind Sea
Height
m
Swell Vis
km
Cloud Weather Temp
°C
Press
MSL
hPa
Rain since
9am
mm
Dir  Spd
kts
Gust
kts
Height
m
Period
s
Dir
27/11:30pm NE 7 9 - - - - - - - 25.9 1011.9 0.2
27/11:00pm NE 8 10 - - - - - - - 25.9 1011.9 0.2
27/10:30pm NE 9 11 - - - - - - - 25.9 1011.9 0.2
27/10:00pm NE 9 11 - - - - - - - 26.1 1012.3 0.2
27/09:30pm ENE 10 11 - - - - - - - 25.9 1012.3 0.2
27/09:00pm ENE 8 10 - - - - - - - 25.8 1012.4 0.2
27/08:30pm ENE 8 10 - - - - - - - 25.8 1012.2 0.2
27/08:00pm E 8 10 - - - - - - - 25.8 1012.1 0.2
27/07:30pm E 7 9 - - - - - - - 25.7 1011.9 0.2
27/07:00pm ENE 9 11 - - - - - - - 25.9 1011.4 0.0
27/06:30pm ENE 8 9 - - - - - - - 26.0 1011.3 0.0
27/06:00pm E 7 10 - - - - - - - 26.2 1011.0 0.0
27/05:30pm E 10 12 - - - - - - - 26.4 1010.5 0.0
27/05:00pm ENE 9 12 - - - - - - - 26.9 1010.1 0.0
27/04:30pm ENE 10 12 - - - - - - - 27.0 1010.0 0.0
27/04:00pm ENE 8 9 - - - - - - - 27.3 1010.3 0.0
27/03:30pm ENE 9 11 - - - - - - - 27.5 1010.3 0.0
27/03:00pm ENE 9 10 - - - - - - - 27.5 1010.3 0.0
27/02:30pm ENE 8 10 - - - - - - - 28.1 1010.6 0.0
27/02:00pm ENE 8 10 - - - - - - - 28.0 1010.8 0.0
27/01:30pm E 7 9 - - - - - - - 28.3 1010.9 0.0
27/01:00pm E 8 9 - - - - - - - 27.8 1011.1 0.0
27/12:30pm E 8 10 - - - - - - - 27.7 1011.4 0.0
27/12:00pm E 7 8 - - - - - - - 28.6 1011.9 0.0
27/11:30am E 7 9 - - - - - - - 28.8 1012.1 0.0
27/11:00am ENE 7 9 - - - - - - - 28.1 1012.2 0.0
27/10:30am ENE 7 8 - - - - - - - 28.3 1012.4 0.0
27/10:00am E 6 7 - - - - - - - 28.4 1012.5 0.0
27/09:30am E 4 5 - - - - - - - 28.1 1012.6 0.0
27/09:00am E 4 5 - - - - - - - 27.4 1012.6 0.0
27/08:30am CALM 0 3 - - - - - - - 27.6 1012.5 0.0
27/08:00am SW 2 4 - - - - - - - 26.2 1012.3 0.0
27/07:30am SSW 4 6 - - - - - - - 25.4 1011.8 0.0
27/07:00am SW 3 5 - - - - - - - 24.4 1011.6 0.0
27/06:30am SW 4 5 - - - - - - - 23.9 1011.4 0.0
27/06:00am SW 4 5 - - - - - - - 23.7 1011.2 0.0
27/05:30am SW 3 5 - - - - - - - 23.4 1010.6 0.0
27/05:00am CALM 0 0 - - - - - - - 23.4 1010.5 0.0
27/04:30am SW 4 5 - - - - - - - 23.6 1010.5 0.0
27/04:00am WSW 3 4 - - - - - - - 23.8 1010.4 0.0
27/03:30am CALM 0 3 - - - - - - - 24.0 1010.2 0.0
27/03:00am WNW 1 4 - - - - - - - 24.3 1010.3 0.0
27/02:30am WNW 3 5 - - - - - - - 24.5 1010.5 0.0
27/02:00am NNW 3 4 - - - - - - - 24.4 1010.6 0.0
27/01:30am CALM 0 0 - - - - - - - 24.3 1010.8 0.0
27/01:00am WNW 4 5 - - - - - - - 24.7 1011.2 0.0
27/12:30am NNW 4 6 - - - - - - - 24.5 1011.4 0.0
27/12:00am NNW 4 6 - - - - - - - 25.0 1011.6 0.0
 
Date/Time
EST
Wind Sea
Height
m
Swell Vis
km
Cloud Weather Temp
°C
Press
MSL
hPa
Rain since
9am
mm
Dir  Spd
kts
Gust
kts
Height
m
Period
s
Dir
26/11:30pm NNW 5 7 - - - - - - - 25.3 1012.1 0.0
26/11:00pm NW 5 7 - - - - - - - 25.4 1012.2 0.0
26/10:30pm NNW 3 5 - - - - - - - 25.3 1012.1 0.0
26/10:00pm NW 4 5 - - - - - - - 25.2 1012.1 0.0
26/09:30pm NNW 4 5 - - - - - - - 25.1 1012.1 0.0
26/09:00pm NNW 4 7 - - - - - - - 25.4 1012.0 0.0
26/08:30pm N 7 10 - - - - - - - 25.8 1011.8 0.0
26/08:00pm NNE 8 10 - - - - - - - 25.9 1011.3 0.0
26/07:30pm NNE 8 12 - - - - - - - 26.1 1011.1 0.0
26/07:00pm NNE 10 12 - - - - - - - 26.1 1010.5 0.0
26/06:30pm NNE 11 13 - - - - - - - 26.3 1010.0 0.0
26/06:00pm NNE 11 14 - - - - - - - 26.9 1009.8 0.0
26/05:30pm NE 12 15 - - - - - - - 27.7 1009.2 0.0
26/05:00pm NE 13 15 - - - - - - - 27.6 1008.9 0.0
26/04:30pm NE 13 15 - - - - - - - 28.3 1008.7 0.0
26/04:00pm NE 13 16 - - - - - - - 28.7 1008.6 0.0
26/03:30pm NNE 13 17 - - - - - - - 28.9 1008.6 0.0
26/03:00pm NNE 13 16 - - - - - - - 29.6 1008.6 0.0
26/02:30pm NNE 13 17 - - - - - - - 29.7 1008.9 0.0
26/02:00pm NE 13 16 - - - - - - - 29.4 1009.2 0.0
26/01:30pm NE 13 16 - - - - - - - 29.7 1009.6 0.0

Other formats

Comma delimited format used in spreadsheet applications
http://www.bom.gov.au/fwo/IDQ60701/IDQ60701.94580.axf

JavaScript Object Notation format (JSON) in row-major order
http://www.bom.gov.au/fwo/IDQ60701/IDQ60701.94580.json

Data quality

Most of these data are generated automatically and are frequently updated. Quality checks on data are not normally performed. It is possible for incorrect values to appear. Refer to information at About Latest Weather Observations and please check the disclaimer before using these data.